createdAt,value
2022-07-28T00:01:42.995Z,38.60
2022-07-28T00:04:11.881Z,39.30
2022-07-28T00:06:40.902Z,39.20
2022-07-28T00:09:10.088Z,39.10
2022-07-28T00:11:51.995Z,39.10
2022-07-28T00:14:24.221Z,39.30
2022-07-28T00:16:54.299Z,39.30
2022-07-28T00:19:23.049Z,39.20
2022-07-28T00:21:51.792Z,38.90
2022-07-28T00:24:20.408Z,39.20
2022-07-28T00:26:48.985Z,39.40
2022-07-28T00:29:17.836Z,39.70
2022-07-28T00:31:46.411Z,40.00
2022-07-28T00:34:16.866Z,39.50
2022-07-28T00:36:45.972Z,39.60
2022-07-28T00:39:15.053Z,39.10
2022-07-28T00:41:43.806Z,39.60
2022-07-28T00:44:13.000Z,39.50
2022-07-28T00:46:41.797Z,39.30
2022-07-28T00:49:10.622Z,40.00
2022-07-28T00:51:41.823Z,40.20
2022-07-28T00:54:11.002Z,39.90
2022-07-28T00:56:40.095Z,40.20
2022-07-28T00:59:08.682Z,39.80
2022-07-28T01:01:37.600Z,39.40
2022-07-28T01:04:07.274Z,39.10
2022-07-28T01:07:01.253Z,39.30
2022-07-28T01:09:54.105Z,40.10
2022-07-28T01:12:42.038Z,40.10
2022-07-28T01:15:23.774Z,40.20
2022-07-28T01:18:03.750Z,39.30
2022-07-28T01:20:40.613Z,39.30
2022-07-28T01:23:51.151Z,39.30
2022-07-28T01:26:55.666Z,39.30
2022-07-28T01:29:51.214Z,39.70
2022-07-28T01:32:26.167Z,39.80
2022-07-28T01:35:01.766Z,39.70
2022-07-28T01:37:37.548Z,39.70
2022-07-28T01:40:12.069Z,39.40
2022-07-28T01:42:48.158Z,39.30
2022-07-28T01:45:19.156Z,40.00
2022-07-28T01:47:54.242Z,39.70
2022-07-28T01:50:27.448Z,39.90
2022-07-28T01:52:59.167Z,39.70
2022-07-28T01:55:29.882Z,39.80
2022-07-28T01:57:59.115Z,39.70
2022-07-28T02:00:29.172Z,40.40
2022-07-28T02:03:03.801Z,39.70
2022-07-28T02:05:34.740Z,39.80
2022-07-28T02:08:07.290Z,39.60
2022-07-28T02:10:38.187Z,39.80
2022-07-28T02:13:08.115Z,39.90
2022-07-28T02:15:40.331Z,40.30
2022-07-28T02:18:12.523Z,40.20
2022-07-28T02:20:42.584Z,40.30
2022-07-28T02:23:15.592Z,40.10
2022-07-28T02:25:45.427Z,40.20
2022-07-28T02:28:17.062Z,40.20
2022-07-28T02:30:56.964Z,40.40
2022-07-28T02:33:59.885Z,40.40
2022-07-28T02:36:27.975Z,40.30
2022-07-28T02:39:04.423Z,40.40
2022-07-28T02:41:40.565Z,40.90
2022-07-28T02:44:15.975Z,40.80
2022-07-28T02:46:49.214Z,41.90
2022-07-28T02:49:26.512Z,41.00
2022-07-28T02:51:59.235Z,40.80
2022-07-28T02:54:29.889Z,40.50
2022-07-28T02:57:01.155Z,40.40
2022-07-28T02:59:31.309Z,40.50
2022-07-28T03:02:01.258Z,40.50
2022-07-28T03:04:49.812Z,40.60
2022-07-28T03:07:19.313Z,40.50
2022-07-28T03:09:49.645Z,40.60
2022-07-28T03:12:18.918Z,40.50
2022-07-28T03:14:47.829Z,40.70
2022-07-28T03:17:17.710Z,40.80
2022-07-28T03:19:47.947Z,40.80
2022-07-28T03:22:16.840Z,41.10
2022-07-28T03:24:50.907Z,41.30
2022-07-28T03:27:25.839Z,41.50
2022-07-28T03:30:03.811Z,41.70
2022-07-28T03:32:36.344Z,41.90
2022-07-28T03:35:08.302Z,41.70
2022-07-28T03:37:53.896Z,41.40
2022-07-28T03:40:26.121Z,41.30
2022-07-28T03:42:56.997Z,41.60
2022-07-28T03:45:27.422Z,41.20
2022-07-28T03:47:58.096Z,41.20
2022-07-28T03:50:31.612Z,41.30
2022-07-28T03:53:03.879Z,41.00
2022-07-28T03:55:32.458Z,41.20
2022-07-28T03:58:01.573Z,41.30
2022-07-28T04:00:30.384Z,41.30
2022-07-28T04:02:58.997Z,41.50
2022-07-28T04:05:29.303Z,41.20
2022-07-28T04:07:57.847Z,41.30
2022-07-28T04:10:26.605Z,40.80
2022-07-28T04:12:57.605Z,41.00
2022-07-28T04:15:28.199Z,41.10
2022-07-28T04:17:58.117Z,41.10
2022-07-28T04:20:29.523Z,41.20
2022-07-28T04:22:58.490Z,41.10
2022-07-28T04:25:28.934Z,41.40
2022-07-28T04:27:57.686Z,41.30
2022-07-28T04:30:28.002Z,41.70
2022-07-28T04:32:57.179Z,41.60
2022-07-28T04:35:27.344Z,41.80
2022-07-28T04:37:58.656Z,41.70
2022-07-28T04:40:28.767Z,41.70
2022-07-28T04:42:57.938Z,41.60
2022-07-28T04:45:26.683Z,41.70
2022-07-28T04:47:55.285Z,41.00
2022-07-28T04:50:24.092Z,40.80
2022-07-28T04:53:00.713Z,41.40
2022-07-28T04:55:29.714Z,41.00
2022-07-28T04:57:58.245Z,42.30
2022-07-28T05:00:27.611Z,41.60
2022-07-28T05:02:58.457Z,40.90
2022-07-28T05:05:27.269Z,41.10
2022-07-28T05:07:55.928Z,41.10
2022-07-28T05:10:26.219Z,41.90
2022-07-28T05:12:54.852Z,42.30
2022-07-28T05:15:23.461Z,41.20
2022-07-28T05:17:52.220Z,41.80
2022-07-28T05:20:20.898Z,41.20
2022-07-28T05:22:53.636Z,41.00
2022-07-28T05:25:25.514Z,41.80
2022-07-28T05:27:55.792Z,41.80
2022-07-28T05:30:24.730Z,41.60
2022-07-28T05:32:59.252Z,40.90
2022-07-28T05:35:28.361Z,41.00
2022-07-28T05:37:56.945Z,41.20
2022-07-28T05:40:27.277Z,40.80
2022-07-28T05:42:56.083Z,40.70
2022-07-28T05:45:25.003Z,41.00
2022-07-28T05:47:54.785Z,41.00
2022-07-28T05:50:25.295Z,40.50
2022-07-28T05:52:54.227Z,40.50
2022-07-28T05:55:22.820Z,40.40
2022-07-28T05:57:54.200Z,40.20
2022-07-28T06:00:24.827Z,41.10
2022-07-28T06:02:54.062Z,40.50
2022-07-28T06:05:24.467Z,39.80
2022-07-28T06:07:53.191Z,40.20
2022-07-28T06:10:24.680Z,40.30
2022-07-28T06:12:57.889Z,39.60
2022-07-28T06:15:28.405Z,38.60
2022-07-28T06:17:57.272Z,38.50
2022-07-28T06:20:27.864Z,39.50
2022-07-28T06:22:57.542Z,37.80
2022-07-28T06:25:29.083Z,37.80
2022-07-28T06:28:00.958Z,38.20
2022-07-28T06:30:30.772Z,38.10
2022-07-28T06:33:00.613Z,37.30
2022-07-28T06:35:29.244Z,37.00
2022-07-28T06:37:58.018Z,37.90
2022-07-28T06:40:26.703Z,36.90
2022-07-28T06:42:55.435Z,36.30
2022-07-28T06:45:25.746Z,36.80
2022-07-28T06:47:55.141Z,36.60
2022-07-28T06:50:25.196Z,35.20
2022-07-28T06:52:56.392Z,35.10
2022-07-28T06:55:25.169Z,35.00
2022-07-28T06:57:54.406Z,34.80
2022-07-28T07:00:23.319Z,35.30
2022-07-28T07:02:53.366Z,34.60
2022-07-28T07:05:21.952Z,34.80
2022-07-28T07:07:50.777Z,33.90
2022-07-28T07:10:19.346Z,34.20
2022-07-28T07:12:47.933Z,34.60
2022-07-28T07:15:16.788Z,35.50
2022-07-28T07:17:45.340Z,35.70
2022-07-28T07:20:17.233Z,35.40
2022-07-28T07:22:48.998Z,34.90
2022-07-28T07:25:19.933Z,35.20
2022-07-28T07:27:48.958Z,35.50
2022-07-28T07:30:18.435Z,35.70
2022-07-28T07:32:47.054Z,35.70
2022-07-28T07:35:17.153Z,34.70
2022-07-28T07:37:45.790Z,34.20
2022-07-28T07:40:14.400Z,35.10
2022-07-28T07:42:43.216Z,34.70
2022-07-28T07:45:12.303Z,34.60
2022-07-28T07:47:40.998Z,34.90
2022-07-28T07:50:10.878Z,34.60
2022-07-28T07:52:40.843Z,34.80
2022-07-28T07:55:10.905Z,34.40
2022-07-28T07:57:39.717Z,34.40
2022-07-28T08:00:28.558Z,34.30
2022-07-28T08:02:58.532Z,34.10
2022-07-28T08:05:34.822Z,33.40
2022-07-28T08:08:07.172Z,33.30
2022-07-28T08:10:36.148Z,33.60
2022-07-28T08:13:06.375Z,33.50
2022-07-28T08:15:35.978Z,36.00
2022-07-28T08:18:05.266Z,35.00
2022-07-28T08:20:34.098Z,34.00
2022-07-28T08:23:02.884Z,34.40
2022-07-28T08:25:35.818Z,33.90
2022-07-28T08:28:05.261Z,34.50
2022-07-28T08:30:33.997Z,33.40
2022-07-28T08:33:03.428Z,35.50
2022-07-28T08:35:34.769Z,33.50
2022-07-28T08:38:05.575Z,33.40
2022-07-28T08:40:39.491Z,32.90
2022-07-28T08:43:21.036Z,32.50
2022-07-28T08:45:57.763Z,30.80
2022-07-28T08:48:31.543Z,32.20
2022-07-28T08:51:05.513Z,33.30
2022-07-28T08:53:37.757Z,33.10
2022-07-28T08:56:10.595Z,32.20
2022-07-28T08:58:39.755Z,31.80
2022-07-28T09:01:11.064Z,31.50
2022-07-28T09:03:40.514Z,31.00
2022-07-28T09:06:09.515Z,32.90
2022-07-28T09:08:38.430Z,31.80
2022-07-28T09:11:08.411Z,31.20
2022-07-28T09:13:38.360Z,31.80
2022-07-28T09:16:07.803Z,31.30
2022-07-28T09:18:36.833Z,31.20
2022-07-28T09:21:06.237Z,30.70
2022-07-28T09:23:46.189Z,30.70
2022-07-28T09:26:17.265Z,31.30
2022-07-28T09:28:53.131Z,31.30
2022-07-28T09:31:23.791Z,30.90
2022-07-28T09:33:58.507Z,30.90
2022-07-28T09:36:27.251Z,30.70
2022-07-28T09:38:56.738Z,30.30
2022-07-28T09:41:26.685Z,30.20
2022-07-28T09:43:55.965Z,30.70
2022-07-28T09:46:29.477Z,30.10
2022-07-28T09:49:01.186Z,30.00
2022-07-28T09:51:32.093Z,30.10
2022-07-28T09:54:10.972Z,30.20
2022-07-28T09:56:45.915Z,30.30
2022-07-28T09:59:16.985Z,30.00
2022-07-28T10:01:56.536Z,29.40
2022-07-28T10:04:34.144Z,30.00
2022-07-28T10:07:06.803Z,30.40
2022-07-28T10:09:35.623Z,29.70
2022-07-28T10:12:18.467Z,29.50
2022-07-28T10:14:47.619Z,29.10
2022-07-28T10:17:29.454Z,29.50
2022-07-28T10:19:59.700Z,29.90
2022-07-28T10:22:33.414Z,30.50
2022-07-28T10:25:06.819Z,30.90
2022-07-28T10:27:37.759Z,31.10
2022-07-28T10:30:08.229Z,31.60
2022-07-28T10:32:42.977Z,30.70
2022-07-28T10:35:14.749Z,31.30
2022-07-28T10:37:52.534Z,30.60
2022-07-28T10:40:29.851Z,30.90
2022-07-28T10:43:01.446Z,31.30
2022-07-28T10:45:55.070Z,31.60
2022-07-28T10:48:23.982Z,31.50
2022-07-28T10:50:54.699Z,32.70
2022-07-28T10:53:37.285Z,31.70
2022-07-28T10:56:16.724Z,32.40
2022-07-28T10:59:04.742Z,32.00
2022-07-28T11:01:53.865Z,32.20
2022-07-28T11:04:59.169Z,32.20
2022-07-28T11:07:40.619Z,32.50
2022-07-28T11:10:20.538Z,33.20
2022-07-28T11:12:51.360Z,32.30
2022-07-28T11:15:33.714Z,31.80
2022-07-28T11:18:07.467Z,32.30
2022-07-28T11:21:10.266Z,31.60
2022-07-28T11:23:54.690Z,31.50
2022-07-28T11:26:36.487Z,33.10
2022-07-28T11:29:25.880Z,32.50
2022-07-28T11:32:06.597Z,31.60
2022-07-28T11:35:08.627Z,33.10
2022-07-28T11:38:14.544Z,32.10
2022-07-28T11:40:45.546Z,32.10
2022-07-28T11:43:36.775Z,32.60
2022-07-28T11:46:38.453Z,32.00
2022-07-28T11:49:28.630Z,32.90
2022-07-28T11:52:22.592Z,32.30
2022-07-28T11:54:58.063Z,32.20
2022-07-28T11:57:29.040Z,32.00
2022-07-28T12:00:01.184Z,32.20
2022-07-28T12:02:33.260Z,32.60
2022-07-28T12:05:12.037Z,32.10
2022-07-28T12:07:45.591Z,31.40
2022-07-28T12:10:53.952Z,31.50
2022-07-28T12:13:28.754Z,32.00
2022-07-28T12:15:57.911Z,33.00
2022-07-28T12:18:26.730Z,33.00
2022-07-28T12:20:58.559Z,32.50
2022-07-28T12:23:39.396Z,31.80
2022-07-28T12:26:31.668Z,31.00
2022-07-28T12:29:01.843Z,32.40
2022-07-28T12:31:33.856Z,32.30
2022-07-28T12:34:06.238Z,32.00
2022-07-28T12:36:37.640Z,31.20
2022-07-28T12:39:12.738Z,32.40
2022-07-28T12:41:41.634Z,32.20
2022-07-28T12:44:12.176Z,32.00
2022-07-28T12:46:48.855Z,32.90
2022-07-28T12:49:23.945Z,32.00
2022-07-28T12:51:54.119Z,31.90
2022-07-28T12:54:37.149Z,31.30
2022-07-28T12:57:06.594Z,32.10
2022-07-28T12:59:38.735Z,32.00
2022-07-28T13:02:09.323Z,31.80
2022-07-28T13:04:46.482Z,33.30
2022-07-28T13:07:26.010Z,31.40
2022-07-28T13:10:05.313Z,32.10
2022-07-28T13:12:34.976Z,31.20
2022-07-28T13:15:07.001Z,32.20
2022-07-28T13:17:51.810Z,32.10
2022-07-28T13:20:22.321Z,31.70
2022-07-28T13:22:53.480Z,31.60
2022-07-28T13:25:22.887Z,31.00
2022-07-28T13:27:55.715Z,32.20
2022-07-28T13:30:24.830Z,31.70
2022-07-28T13:32:54.821Z,32.30
2022-07-28T13:35:23.657Z,32.00
2022-07-28T13:37:53.762Z,31.60
2022-07-28T13:40:22.789Z,31.80
2022-07-28T13:42:53.296Z,31.30
2022-07-28T13:45:26.178Z,31.20
2022-07-28T13:47:59.001Z,31.20
2022-07-28T13:50:28.053Z,30.20
2022-07-28T13:52:58.603Z,30.60
2022-07-28T13:55:27.522Z,31.00
2022-07-28T13:57:56.709Z,31.10
2022-07-28T14:00:25.860Z,32.00
2022-07-28T14:02:54.536Z,31.50
2022-07-28T14:05:23.377Z,31.20
2022-07-28T14:07:52.111Z,31.90
2022-07-28T14:10:26.725Z,31.10
2022-07-28T14:12:56.442Z,31.60
2022-07-28T14:15:25.077Z,31.70
2022-07-28T14:17:53.814Z,32.60
2022-07-28T14:20:22.614Z,31.10
2022-07-28T14:22:52.443Z,31.80
2022-07-28T14:25:22.529Z,31.70
2022-07-28T14:27:54.620Z,32.10
2022-07-28T14:30:26.858Z,33.10
2022-07-28T14:32:58.113Z,32.00
2022-07-28T14:35:26.760Z,30.80
2022-07-28T14:38:41.901Z,30.60
2022-07-28T14:40:45.682Z,30.40
2022-07-28T14:56:38.608Z,30.00
2022-07-28T14:59:07.428Z,31.10
2022-07-28T15:01:36.607Z,31.00
2022-07-28T15:04:06.462Z,30.30
2022-07-28T15:06:35.249Z,31.00
2022-07-28T15:09:04.264Z,30.00
2022-07-28T15:11:32.915Z,30.70
2022-07-28T15:14:03.545Z,30.50
2022-07-28T15:16:32.398Z,31.10
2022-07-28T15:19:01.031Z,30.40
2022-07-28T15:21:34.383Z,31.20
2022-07-28T15:24:07.524Z,31.40
2022-07-28T15:26:36.747Z,31.50
2022-07-28T15:29:07.124Z,32.30
2022-07-28T15:31:37.777Z,32.50
2022-07-28T15:34:08.624Z,31.80
2022-07-28T15:36:39.172Z,31.00
2022-07-28T15:39:09.267Z,31.20
2022-07-28T15:41:38.108Z,31.20
2022-07-28T15:44:09.760Z,30.50
2022-07-28T15:46:39.188Z,31.20
2022-07-28T15:49:09.919Z,30.40
2022-07-28T15:51:39.688Z,30.10
2022-07-28T15:54:08.548Z,31.70
2022-07-28T15:56:38.276Z,30.20
2022-07-28T15:59:09.298Z,30.70
2022-07-28T16:01:45.161Z,30.40
2022-07-28T16:04:14.365Z,30.00
2022-07-28T16:07:00.974Z,29.60
2022-07-28T16:09:45.683Z,30.00
2022-07-28T16:12:15.799Z,30.80
2022-07-28T16:14:45.911Z,30.00
2022-07-28T16:17:14.605Z,30.00
2022-07-28T16:19:49.647Z,30.60
2022-07-28T16:22:20.501Z,29.70
2022-07-28T16:24:50.823Z,29.70
2022-07-28T16:27:19.710Z,29.90
2022-07-28T16:29:50.351Z,30.00
2022-07-28T16:32:19.166Z,30.30
2022-07-28T16:34:49.186Z,29.50
2022-07-28T16:37:19.719Z,29.50
2022-07-28T16:39:49.622Z,29.60
2022-07-28T16:42:18.442Z,29.80
2022-07-28T22:10:48.327Z,48.80
2022-07-28T22:13:18.724Z,49.50
2022-07-28T22:15:47.417Z,49.60
2022-07-28T22:18:17.712Z,49.70
2022-07-28T22:20:46.786Z,50.00
2022-07-28T22:23:18.629Z,49.80
2022-07-28T22:25:58.346Z,49.70
2022-07-28T22:28:29.518Z,49.60
2022-07-28T22:31:09.311Z,49.70
2022-07-28T22:33:43.543Z,49.70
2022-07-28T22:36:12.652Z,49.60
2022-07-28T22:38:41.286Z,49.50
2022-07-28T22:41:10.595Z,50.30
2022-07-28T22:43:39.446Z,49.60
2022-07-28T22:46:10.546Z,49.30
2022-07-28T22:48:39.565Z,49.30
2022-07-28T22:51:13.401Z,49.30
2022-07-28T22:54:00.581Z,49.30
2022-07-28T22:59:17.702Z,50.00
2022-07-28T23:01:46.727Z,50.20
2022-07-28T23:04:15.803Z,50.70
2022-07-28T23:06:46.610Z,50.70
2022-07-28T23:09:15.478Z,50.60
2022-07-28T23:11:55.542Z,51.30
2022-07-28T23:14:25.041Z,50.50
2022-07-28T23:16:53.741Z,50.50
2022-07-28T23:19:22.441Z,51.00
2022-07-28T23:21:52.797Z,50.40
2022-07-28T23:24:21.405Z,50.50
2022-07-28T23:26:50.237Z,50.30
2022-07-28T23:29:19.096Z,50.60
2022-07-28T23:31:47.808Z,50.60
2022-07-28T23:34:16.801Z,50.20
2022-07-28T23:36:47.707Z,50.10
2022-07-28T23:39:17.733Z,50.00
2022-07-28T23:41:47.821Z,50.10
2022-07-28T23:44:16.773Z,51.00
2022-07-28T23:46:45.606Z,50.20
2022-07-28T23:49:15.772Z,50.10
2022-07-28T23:51:47.693Z,50.10
2022-07-28T23:54:19.321Z,50.10
2022-07-28T23:56:52.031Z,50.20
2022-07-28T23:59:20.856Z,50.10
